sensor_id;sensor_type;location;lat;lon;timestamp;pressure;altitude;pressure_sealevel;temperature;humidity
6347;BME280;3206;42.666;23.600;2022-09-25T00:01:39;95559.06;;;8.28;100.00
6347;BME280;3206;42.666;23.600;2022-09-25T00:04:06;95557.31;;;8.15;100.00
6347;BME280;3206;42.666;23.600;2022-09-25T00:06:33;95560.16;;;8.27;100.00
6347;BME280;3206;42.666;23.600;2022-09-25T00:09:00;95555.66;;;8.28;100.00
6347;BME280;3206;42.666;23.600;2022-09-25T00:11:29;95546.88;;;8.19;100.00
6347;BME280;3206;42.666;23.600;2022-09-25T00:13:58;95550.13;;;8.16;100.00
6347;BME280;3206;42.666;23.600;2022-09-25T00:16:27;95544.00;;;8.07;100.00
6347;BME280;3206;42.666;23.600;2022-09-25T00:18:56;95541.50;;;8.10;100.00
6347;BME280;3206;42.666;23.600;2022-09-25T00:21:41;95553.88;;;7.89;100.00
6347;BME280;3206;42.666;23.600;2022-09-25T00:24:10;95555.59;;;7.85;100.00
6347;BME280;3206;42.666;23.600;2022-09-25T00:26:39;95551.50;;;7.79;100.00
6347;BME280;3206;42.666;23.600;2022-09-25T00:29:07;95525.06;;;7.74;100.00
6347;BME280;3206;42.666;23.600;2022-09-25T00:31:35;95543.22;;;7.72;100.00
6347;BME280;3206;42.666;23.600;2022-09-25T00:34:04;95543.53;;;7.79;100.00
6347;BME280;3206;42.666;23.600;2022-09-25T00:36:31;95547.91;;;7.75;100.00
6347;BME280;3206;42.666;23.600;2022-09-25T00:38:58;95543.31;;;7.42;100.00
6347;BME280;3206;42.666;23.600;2022-09-25T00:41:26;95535.00;;;7.43;100.00
6347;BME280;3206;42.666;23.600;2022-09-25T00:43:55;95530.75;;;7.34;100.00
6347;BME280;3206;42.666;23.600;2022-09-25T00:46:26;95527.66;;;7.40;100.00
6347;BME280;3206;42.666;23.600;2022-09-25T00:48:58;95532.81;;;7.45;100.00
6347;BME280;3206;42.666;23.600;2022-09-25T00:51:32;95525.28;;;6.92;100.00
6347;BME280;3206;42.666;23.600;2022-09-25T00:54:03;95518.38;;;6.82;100.00
6347;BME280;3206;42.666;23.600;2022-09-25T00:56:35;95520.38;;;6.77;100.00
6347;BME280;3206;42.666;23.600;2022-09-25T00:59:03;95528.63;;;6.75;100.00
6347;BME280;3206;42.666;23.600;2022-09-25T01:01:31;95529.19;;;6.64;100.00
6347;BME280;3206;42.666;23.600;2022-09-25T01:03:59;95529.47;;;6.84;100.00
6347;BME280;3206;42.666;23.600;2022-09-25T01:06:27;95527.00;;;6.88;100.00
6347;BME280;3206;42.666;23.600;2022-09-25T01:08:56;95529.66;;;6.88;100.00
6347;BME280;3206;42.666;23.600;2022-09-25T01:11:23;95524.97;;;6.63;100.00
6347;BME280;3206;42.666;23.600;2022-09-25T01:13:53;95520.44;;;6.55;100.00
6347;BME280;3206;42.666;23.600;2022-09-25T01:16:27;95476.94;;;6.12;100.00
6347;BME280;3206;42.666;23.600;2022-09-25T01:19:05;95515.84;;;6.47;100.00
6347;BME280;3206;42.666;23.600;2022-09-25T01:21:43;95514.97;;;6.60;100.00
6347;BME280;3206;42.666;23.600;2022-09-25T01:27:29;95515.22;;;6.50;100.00
6347;BME280;3206;42.666;23.600;2022-09-25T01:30:02;95532.59;;;6.34;100.00
6347;BME280;3206;42.666;23.600;2022-09-25T01:32:35;95522.81;;;6.12;100.00
6347;BME280;3206;42.666;23.600;2022-09-25T01:35:07;95528.22;;;6.29;100.00
6347;BME280;3206;42.666;23.600;2022-09-25T01:37:40;95533.41;;;6.34;100.00
6347;BME280;3206;42.666;23.600;2022-09-25T01:40:13;95526.00;;;6.23;100.00
6347;BME280;3206;42.666;23.600;2022-09-25T01:42:45;95515.66;;;6.21;100.00
6347;BME280;3206;42.666;23.600;2022-09-25T01:45:19;95512.25;;;6.21;100.00
6347;BME280;3206;42.666;23.600;2022-09-25T01:47:50;95519.28;;;5.81;100.00
6347;BME280;3206;42.666;23.600;2022-09-25T01:50:24;95521.03;;;5.86;100.00
6347;BME280;3206;42.666;23.600;2022-09-25T01:52:56;95518.25;;;5.91;100.00
6347;BME280;3206;42.666;23.600;2022-09-25T01:55:29;95519.66;;;5.75;100.00
6347;BME280;3206;42.666;23.600;2022-09-25T01:58:02;95513.56;;;5.88;100.00
6347;BME280;3206;42.666;23.600;2022-09-25T02:00:36;95522.97;;;5.94;100.00
6347;BME280;3206;42.666;23.600;2022-09-25T02:03:08;95529.63;;;5.91;100.00
6347;BME280;3206;42.666;23.600;2022-09-25T02:05:42;95521.38;;;5.93;100.00
6347;BME280;3206;42.666;23.600;2022-09-25T02:08:14;95527.03;;;6.00;100.00
6347;BME280;3206;42.666;23.600;2022-09-25T02:10:47;95530.38;;;6.05;100.00
6347;BME280;3206;42.666;23.600;2022-09-25T02:13:16;95535.88;;;6.09;100.00
6347;BME280;3206;42.666;23.600;2022-09-25T02:15:48;95528.03;;;6.04;100.00
6347;BME280;3206;42.666;23.600;2022-09-25T02:18:17;95519.22;;;5.95;100.00
6347;BME280;3206;42.666;23.600;2022-09-25T02:21:12;95520.19;;;5.99;100.00
6347;BME280;3206;42.666;23.600;2022-09-25T02:23:46;95514.66;;;6.09;100.00
6347;BME280;3206;42.666;23.600;2022-09-25T02:26:19;95507.66;;;6.13;100.00
6347;BME280;3206;42.666;23.600;2022-09-25T02:28:47;95505.19;;;6.16;100.00
6347;BME280;3206;42.666;23.600;2022-09-25T02:31:17;95499.50;;;6.09;100.00
6347;BME280;3206;42.666;23.600;2022-09-25T02:33:44;95502.09;;;6.01;100.00
6347;BME280;3206;42.666;23.600;2022-09-25T02:36:16;95508.19;;;6.01;100.00
6347;BME280;3206;42.666;23.600;2022-09-25T02:38:45;95510.56;;;6.03;100.00
6347;BME280;3206;42.666;23.600;2022-09-25T02:41:22;95520.03;;;5.95;100.00
6347;BME280;3206;42.666;23.600;2022-09-25T02:43:57;95515.91;;;5.76;100.00
6347;BME280;3206;42.666;23.600;2022-09-25T02:46:36;95514.16;;;5.85;100.00
6347;BME280;3206;42.666;23.600;2022-09-25T02:49:20;95515.34;;;5.79;100.00
6347;BME280;3206;42.666;23.600;2022-09-25T02:51:55;95513.56;;;5.88;100.00
6347;BME280;3206;42.666;23.600;2022-09-25T02:54:27;95522.75;;;5.90;100.00
6347;BME280;3206;42.666;23.600;2022-09-25T02:57:02;95509.16;;;5.83;100.00
6347;BME280;3206;42.666;23.600;2022-09-25T02:59:34;95511.00;;;5.83;100.00
6347;BME280;3206;42.666;23.600;2022-09-25T03:02:03;95505.84;;;6.00;100.00
6347;BME280;3206;42.666;23.600;2022-09-25T03:04:32;95513.84;;;6.08;100.00
6347;BME280;3206;42.666;23.600;2022-09-25T03:07:01;95523.69;;;6.08;100.00
6347;BME280;3206;42.666;23.600;2022-09-25T03:09:28;95525.88;;;6.06;100.00
6347;BME280;3206;42.666;23.600;2022-09-25T03:11:56;95519.00;;;6.05;100.00
6347;BME280;3206;42.666;23.600;2022-09-25T03:14:23;95527.38;;;5.98;100.00
6347;BME280;3206;42.666;23.600;2022-09-25T03:16:54;95519.91;;;6.00;100.00
6347;BME280;3206;42.666;23.600;2022-09-25T03:19:25;95525.97;;;6.01;100.00
6347;BME280;3206;42.666;23.600;2022-09-25T03:21:53;95530.13;;;5.93;100.00
6347;BME280;3206;42.666;23.600;2022-09-25T03:24:20;95528.13;;;5.99;100.00
6347;BME280;3206;42.666;23.600;2022-09-25T03:26:46;95522.47;;;5.92;100.00
6347;BME280;3206;42.666;23.600;2022-09-25T03:29:15;95518.25;;;5.91;100.00
6347;BME280;3206;42.666;23.600;2022-09-25T03:31:42;95506.69;;;5.87;100.00
6347;BME280;3206;42.666;23.600;2022-09-25T03:34:10;95515.00;;;5.94;100.00
6347;BME280;3206;42.666;23.600;2022-09-25T03:36:40;95507.72;;;5.99;100.00
6347;BME280;3206;42.666;23.600;2022-09-25T03:39:07;95513.38;;;6.06;100.00
6347;BME280;3206;42.666;23.600;2022-09-25T03:41:35;95516.75;;;5.98;100.00
6347;BME280;3206;42.666;23.600;2022-09-25T03:44:03;95511.66;;;6.02;100.00
6347;BME280;3206;42.666;23.600;2022-09-25T03:46:32;95508.63;;;5.95;100.00
6347;BME280;3206;42.666;23.600;2022-09-25T03:49:00;95497.13;;;5.99;100.00
6347;BME280;3206;42.666;23.600;2022-09-25T03:51:28;95500.59;;;6.08;100.00
6347;BME280;3206;42.666;23.600;2022-09-25T03:53:57;95505.91;;;6.08;100.00
6347;BME280;3206;42.666;23.600;2022-09-25T03:56:26;95509.34;;;6.09;100.00
6347;BME280;3206;42.666;23.600;2022-09-25T03:58:54;95516.13;;;5.66;100.00
6347;BME280;3206;42.666;23.600;2022-09-25T04:01:22;95514.94;;;5.10;100.00
6347;BME280;3206;42.666;23.600;2022-09-25T04:03:49;95516.41;;;5.29;100.00
6347;BME280;3206;42.666;23.600;2022-09-25T04:06:17;95526.88;;;4.80;100.00
6347;BME280;3206;42.666;23.600;2022-09-25T04:08:46;95518.84;;;4.85;100.00
6347;BME280;3206;42.666;23.600;2022-09-25T04:11:14;95521.72;;;4.43;100.00
6347;BME280;3206;42.666;23.600;2022-09-25T04:13:41;95518.72;;;4.77;100.00
6347;BME280;3206;42.666;23.600;2022-09-25T04:16:10;95531.28;;;4.71;100.00
6347;BME280;3206;42.666;23.600;2022-09-25T04:18:37;95529.31;;;4.63;100.00
6347;BME280;3206;42.666;23.600;2022-09-25T04:21:08;95532.41;;;4.38;100.00
6347;BME280;3206;42.666;23.600;2022-09-25T04:23:36;95535.97;;;3.97;100.00
6347;BME280;3206;42.666;23.600;2022-09-25T04:26:03;95519.44;;;4.23;100.00
6347;BME280;3206;42.666;23.600;2022-09-25T04:28:31;95530.97;;;4.46;100.00
6347;BME280;3206;42.666;23.600;2022-09-25T04:30:58;95542.81;;;3.98;100.00
6347;BME280;3206;42.666;23.600;2022-09-25T04:33:25;95539.56;;;4.19;100.00
6347;BME280;3206;42.666;23.600;2022-09-25T04:36:09;95544.06;;;4.37;100.00
6347;BME280;3206;42.666;23.600;2022-09-25T04:38:35;95538.31;;;4.49;100.00
6347;BME280;3206;42.666;23.600;2022-09-25T04:41:03;95541.06;;;4.57;100.00
6347;BME280;3206;42.666;23.600;2022-09-25T04:43:31;95542.53;;;4.63;100.00
6347;BME280;3206;42.666;23.600;2022-09-25T04:46:00;95550.69;;;4.80;100.00
6347;BME280;3206;42.666;23.600;2022-09-25T04:48:27;95546.72;;;4.51;100.00
6347;BME280;3206;42.666;23.600;2022-09-25T04:50:54;95532.44;;;4.52;100.00
6347;BME280;3206;42.666;23.600;2022-09-25T04:53:22;95537.03;;;4.60;100.00
6347;BME280;3206;42.666;23.600;2022-09-25T04:55:49;95534.22;;;4.70;100.00
6347;BME280;3206;42.666;23.600;2022-09-25T04:58:16;95534.22;;;4.83;100.00
6347;BME280;3206;42.666;23.600;2022-09-25T05:00:44;95516.59;;;4.92;100.00
6347;BME280;3206;42.666;23.600;2022-09-25T05:03:11;95521.50;;;5.12;100.00
6347;BME280;3206;42.666;23.600;2022-09-25T05:05:38;95529.75;;;5.24;100.00
6347;BME280;3206;42.666;23.600;2022-09-25T05:08:04;95540.53;;;5.28;100.00
6347;BME280;3206;42.666;23.600;2022-09-25T05:10:32;95543.66;;;5.43;100.00
6347;BME280;3206;42.666;23.600;2022-09-25T05:13:00;95544.69;;;5.55;100.00
6347;BME280;3206;42.666;23.600;2022-09-25T05:15:28;95533.72;;;5.62;100.00
6347;BME280;3206;42.666;23.600;2022-09-25T05:18:01;95543.19;;;5.76;100.00
6347;BME280;3206;42.666;23.600;2022-09-25T05:20:28;95541.31;;;5.90;100.00
6347;BME280;3206;42.666;23.600;2022-09-25T05:22:55;95547.41;;;5.91;100.00
6347;BME280;3206;42.666;23.600;2022-09-25T05:25:22;95544.44;;;6.06;100.00
6347;BME280;3206;42.666;23.600;2022-09-25T05:27:50;95543.75;;;6.00;100.00
6347;BME280;3206;42.666;23.600;2022-09-25T05:30:17;95544.00;;;6.12;100.00
6347;BME280;3206;42.666;23.600;2022-09-25T05:32:47;95539.00;;;6.11;100.00
6347;BME280;3206;42.666;23.600;2022-09-25T05:35:16;95541.94;;;6.09;100.00
6347;BME280;3206;42.666;23.600;2022-09-25T05:37:43;95537.56;;;6.27;100.00
6347;BME280;3206;42.666;23.600;2022-09-25T05:40:10;95531.88;;;6.42;100.00
6347;BME280;3206;42.666;23.600;2022-09-25T05:42:36;95538.38;;;6.58;100.00
6347;BME280;3206;42.666;23.600;2022-09-25T05:45:04;95537.41;;;6.76;100.00
6347;BME280;3206;42.666;23.600;2022-09-25T05:47:31;95532.56;;;6.78;100.00
6347;BME280;3206;42.666;23.600;2022-09-25T05:49:57;95524.47;;;6.83;100.00
6347;BME280;3206;42.666;23.600;2022-09-25T05:52:25;95537.06;;;7.08;100.00
6347;BME280;3206;42.666;23.600;2022-09-25T05:54:52;95535.84;;;7.14;100.00
6347;BME280;3206;42.666;23.600;2022-09-25T05:57:19;95535.16;;;7.38;100.00
6347;BME280;3206;42.666;23.600;2022-09-25T05:59:46;95530.97;;;7.54;100.00
6347;BME280;3206;42.666;23.600;2022-09-25T06:02:14;95539.44;;;7.73;100.00
6347;BME280;3206;42.666;23.600;2022-09-25T06:04:41;95526.63;;;7.75;100.00
6347;BME280;3206;42.666;23.600;2022-09-25T06:07:08;95544.34;;;7.97;100.00
6347;BME280;3206;42.666;23.600;2022-09-25T06:09:36;95543.25;;;8.06;100.00
6347;BME280;3206;42.666;23.600;2022-09-25T06:12:03;95544.06;;;8.24;100.00
6347;BME280;3206;42.666;23.600;2022-09-25T06:14:30;95542.19;;;8.24;100.00
6347;BME280;3206;42.666;23.600;2022-09-25T06:16:59;95550.13;;;8.58;100.00
6347;BME280;3206;42.666;23.600;2022-09-25T06:19:26;95539.81;;;8.65;100.00
6347;BME280;3206;42.666;23.600;2022-09-25T06:21:54;95533.00;;;8.85;100.00
6347;BME280;3206;42.666;23.600;2022-09-25T06:24:21;95535.59;;;9.10;100.00
6347;BME280;3206;42.666;23.600;2022-09-25T06:26:49;95540.53;;;9.28;100.00
6347;BME280;3206;42.666;23.600;2022-09-25T06:29:16;95547.63;;;9.53;100.00
6347;BME280;3206;42.666;23.600;2022-09-25T06:31:43;95543.47;;;9.64;100.00
6347;BME280;3206;42.666;23.600;2022-09-25T06:34:10;95545.84;;;9.86;100.00
6347;BME280;3206;42.666;23.600;2022-09-25T06:36:37;95544.06;;;9.99;100.00
6347;BME280;3206;42.666;23.600;2022-09-25T06:39:04;95535.91;;;9.95;100.00
6347;BME280;3206;42.666;23.600;2022-09-25T06:41:31;95537.13;;;10.27;100.00
6347;BME280;3206;42.666;23.600;2022-09-25T06:43:59;95547.47;;;10.49;100.00
6347;BME280;3206;42.666;23.600;2022-09-25T06:46:26;95529.41;;;10.46;100.00
6347;BME280;3206;42.666;23.600;2022-09-25T06:48:53;95537.13;;;10.80;100.00
6347;BME280;3206;42.666;23.600;2022-09-25T06:51:23;95555.75;;;10.88;100.00
6347;BME280;3206;42.666;23.600;2022-09-25T06:53:56;95550.75;;;11.11;100.00
6347;BME280;3206;42.666;23.600;2022-09-25T06:56:23;95549.69;;;11.23;100.00
6347;BME280;3206;42.666;23.600;2022-09-25T06:58:50;95553.13;;;11.36;100.00
6347;BME280;3206;42.666;23.600;2022-09-25T07:01:18;95531.00;;;11.59;100.00
6347;BME280;3206;42.666;23.600;2022-09-25T07:03:45;95551.50;;;11.91;100.00
6347;BME280;3206;42.666;23.600;2022-09-25T07:06:13;95541.78;;;12.11;100.00
6347;BME280;3206;42.666;23.600;2022-09-25T07:08:41;95545.13;;;12.08;100.00
6347;BME280;3206;42.666;23.600;2022-09-25T07:11:11;95544.88;;;12.13;100.00
6347;BME280;3206;42.666;23.600;2022-09-25T07:13:38;95535.25;;;12.36;100.00
6347;BME280;3206;42.666;23.600;2022-09-25T07:16:07;95535.59;;;12.62;100.00
6347;BME280;3206;42.666;23.600;2022-09-25T07:18:35;95539.19;;;12.81;100.00
6347;BME280;3206;42.666;23.600;2022-09-25T07:21:04;95528.94;;;12.71;100.00
6347;BME280;3206;42.666;23.600;2022-09-25T07:23:32;95538.50;;;13.12;100.00
6347;BME280;3206;42.666;23.600;2022-09-25T07:26:04;95547.50;;;13.19;100.00
6347;BME280;3206;42.666;23.600;2022-09-25T07:28:31;95560.22;;;13.22;100.00
6347;BME280;3206;42.666;23.600;2022-09-25T07:30:57;95549.84;;;13.36;100.00
6347;BME280;3206;42.666;23.600;2022-09-25T07:33:24;95552.44;;;13.63;100.00
6347;BME280;3206;42.666;23.600;2022-09-25T07:35:52;95553.41;;;13.55;100.00
6347;BME280;3206;42.666;23.600;2022-09-25T07:38:19;95554.00;;;13.49;100.00
6347;BME280;3206;42.666;23.600;2022-09-25T07:40:46;95549.25;;;13.42;100.00
6347;BME280;3206;42.666;23.600;2022-09-25T07:43:12;95557.28;;;13.58;100.00
6347;BME280;3206;42.666;23.600;2022-09-25T07:45:39;95545.94;;;13.64;100.00
6347;BME280;3206;42.666;23.600;2022-09-25T07:48:06;95558.25;;;13.81;100.00
6347;BME280;3206;42.666;23.600;2022-09-25T07:50:33;95552.75;;;14.62;100.00
6347;BME280;3206;42.666;23.600;2022-09-25T07:53:01;95554.31;;;17.01;95.80
6347;BME280;3206;42.666;23.600;2022-09-25T07:55:27;95539.50;;;16.88;80.70
6347;BME280;3206;42.666;23.600;2022-09-25T07:57:56;95533.09;;;17.76;79.22
6347;BME280;3206;42.666;23.600;2022-09-25T08:00:23;95526.59;;;19.58;68.55
6347;BME280;3206;42.666;23.600;2022-09-25T08:02:56;95523.53;;;19.80;64.59
6347;BME280;3206;42.666;23.600;2022-09-25T08:05:23;95514.25;;;19.88;62.78
6347;BME280;3206;42.666;23.600;2022-09-25T08:07:51;95508.97;;;18.72;64.88
6347;BME280;3206;42.666;23.600;2022-09-25T08:10:19;95517.84;;;17.54;70.70
6347;BME280;3206;42.666;23.600;2022-09-25T08:12:46;95526.00;;;16.55;81.18
6347;BME280;3206;42.666;23.600;2022-09-25T08:15:13;95512.44;;;16.22;84.99
6347;BME280;3206;42.666;23.600;2022-09-25T08:17:40;95510.81;;;17.06;82.21
6347;BME280;3206;42.666;23.600;2022-09-25T08:20:07;95515.56;;;16.83;75.96
6347;BME280;3206;42.666;23.600;2022-09-25T08:22:34;95506.84;;;16.34;80.78
6347;BME280;3206;42.666;23.600;2022-09-25T08:25:01;95505.84;;;16.42;84.39
6347;BME280;3206;42.666;23.600;2022-09-25T08:27:29;95504.59;;;16.10;87.58
6347;BME280;3206;42.666;23.600;2022-09-25T08:29:56;95506.06;;;15.78;84.13
6347;BME280;3206;42.666;23.600;2022-09-25T08:32:23;95510.19;;;16.24;85.15
6347;BME280;3206;42.666;23.600;2022-09-25T08:34:49;95509.22;;;16.10;82.98
6347;BME280;3206;42.666;23.600;2022-09-25T08:37:16;95500.22;;;16.28;81.57
6347;BME280;3206;42.666;23.600;2022-09-25T08:39:44;95488.69;;;16.57;80.99
6347;BME280;3206;42.666;23.600;2022-09-25T08:42:15;95472.66;;;17.07;79.01
6347;BME280;3206;42.666;23.600;2022-09-25T08:44:48;95468.31;;;17.36;73.53
6347;BME280;3206;42.666;23.600;2022-09-25T08:47:37;95474.09;;;16.98;76.48
6347;BME280;3206;42.666;23.600;2022-09-25T08:50:36;95471.81;;;16.34;79.03
6347;BME280;3206;42.666;23.600;2022-09-25T08:53:06;95475.06;;;16.47;78.20
6347;BME280;3206;42.666;23.600;2022-09-25T08:55:35;95473.72;;;17.36;72.97
6347;BME280;3206;42.666;23.600;2022-09-25T08:58:23;95471.66;;;19.57;62.89
6347;BME280;3206;42.666;23.600;2022-09-25T09:00:54;95466.25;;;21.06;58.45
6347;BME280;3206;42.666;23.600;2022-09-25T09:03:24;95459.22;;;23.10;53.11
6347;BME280;3206;42.666;23.600;2022-09-25T09:06:03;95459.63;;;24.73;47.66
6347;BME280;3206;42.666;23.600;2022-09-25T09:08:33;95449.06;;;26.83;43.18
6347;BME280;3206;42.666;23.600;2022-09-25T09:11:05;95447.78;;;29.01;39.78
6347;BME280;3206;42.666;23.600;2022-09-25T09:13:37;95438.19;;;30.87;36.79
6347;BME280;3206;42.666;23.600;2022-09-25T09:16:18;95441.00;;;30.60;34.42
6347;BME280;3206;42.666;23.600;2022-09-25T09:18:47;95434.84;;;31.92;32.90
6347;BME280;3206;42.666;23.600;2022-09-25T09:21:20;95431.88;;;31.72;32.26
6347;BME280;3206;42.666;23.600;2022-09-25T09:23:56;95427.06;;;31.40;32.63
6347;BME280;3206;42.666;23.600;2022-09-25T09:26:30;95415.81;;;31.53;32.52
6347;BME280;3206;42.666;23.600;2022-09-25T09:29:20;95421.44;;;32.99;31.13
6347;BME280;3206;42.666;23.600;2022-09-25T09:31:55;95401.75;;;35.40;28.86
6347;BME280;3206;42.666;23.600;2022-09-25T09:34:37;95387.63;;;35.74;28.02
6347;BME280;3206;42.666;23.600;2022-09-25T09:37:13;95389.03;;;37.56;27.29
6347;BME280;3206;42.666;23.600;2022-09-25T09:39:47;95386.97;;;37.84;25.88
6347;BME280;3206;42.666;23.600;2022-09-25T09:42:23;95383.44;;;37.51;25.35
6347;BME280;3206;42.666;23.600;2022-09-25T09:44:59;95385.63;;;38.18;24.78
6347;BME280;3206;42.666;23.600;2022-09-25T09:47:41;95382.53;;;36.62;26.69
6347;BME280;3206;42.666;23.600;2022-09-25T09:50:22;95384.13;;;34.47;27.87
6347;BME280;3206;42.666;23.600;2022-09-25T09:52:57;95383.31;;;34.41;28.05
6347;BME280;3206;42.666;23.600;2022-09-25T09:55:35;95357.72;;;32.41;29.70
6347;BME280;3206;42.666;23.600;2022-09-25T09:58:09;95385.72;;;33.01;29.43
6347;BME280;3206;42.666;23.600;2022-09-25T10:00:38;95384.63;;;33.22;28.67
6347;BME280;3206;42.666;23.600;2022-09-25T10:03:13;95376.84;;;32.07;29.52
6347;BME280;3206;42.666;23.600;2022-09-25T10:05:45;95372.31;;;29.99;30.64
6347;BME280;3206;42.666;23.600;2022-09-25T10:08:13;95377.00;;;29.32;31.94
6347;BME280;3206;42.666;23.600;2022-09-25T10:10:41;95365.06;;;29.65;31.85
6347;BME280;3206;42.666;23.600;2022-09-25T10:13:14;95354.84;;;28.44;32.84
6347;BME280;3206;42.666;23.600;2022-09-25T10:15:46;95365.94;;;26.86;34.74
6347;BME280;3206;42.666;23.600;2022-09-25T10:18:17;95363.50;;;26.06;35.86
6347;BME280;3206;42.666;23.600;2022-09-25T10:20:50;95342.53;;;25.71;36.59
6347;BME280;3206;42.666;23.600;2022-09-25T10:23:32;95349.41;;;27.14;34.94
6347;BME280;3206;42.666;23.600;2022-09-25T10:26:00;95350.38;;;27.08;35.28
6347;BME280;3206;42.666;23.600;2022-09-25T10:28:29;95348.63;;;26.07;36.02
6347;BME280;3206;42.666;23.600;2022-09-25T10:30:57;95345.94;;;25.91;37.18
6347;BME280;3206;42.666;23.600;2022-09-25T10:33:28;95342.81;;;24.77;38.10
6347;BME280;3206;42.666;23.600;2022-09-25T10:35:56;95356.00;;;24.82;39.67
6347;BME280;3206;42.666;23.600;2022-09-25T10:38:33;95337.59;;;25.34;38.14
6347;BME280;3206;42.666;23.600;2022-09-25T10:41:03;95330.28;;;26.32;36.76
6347;BME280;3206;42.666;23.600;2022-09-25T10:43:30;95339.09;;;26.93;36.12
6347;BME280;3206;42.666;23.600;2022-09-25T10:46:05;95334.78;;;28.65;34.34
6347;BME280;3206;42.666;23.600;2022-09-25T10:48:35;95325.44;;;29.63;32.55
6347;BME280;3206;42.666;23.600;2022-09-25T10:51:19;95328.81;;;30.48;30.74
6347;BME280;3206;42.666;23.600;2022-09-25T10:53:47;95321.84;;;31.62;30.03
6347;BME280;3206;42.666;23.600;2022-09-25T10:56:18;95333.09;;;32.43;29.40
6347;BME280;3206;42.666;23.600;2022-09-25T10:58:48;95326.28;;;31.68;29.54
6347;BME280;3206;42.666;23.600;2022-09-25T11:01:18;95319.66;;;30.60;30.93
6347;BME280;3206;42.666;23.600;2022-09-25T11:03:50;95313.34;;;31.74;29.50
6347;BME280;3206;42.666;23.600;2022-09-25T11:06:23;95314.47;;;33.16;27.92
6347;BME280;3206;42.666;23.600;2022-09-25T11:09:03;95314.72;;;32.69;28.14
6347;BME280;3206;42.666;23.600;2022-09-25T11:11:32;95311.66;;;32.96;28.05
6347;BME280;3206;42.666;23.600;2022-09-25T11:14:01;95315.25;;;32.59;28.38
6347;BME280;3206;42.666;23.600;2022-09-25T11:16:43;95311.22;;;31.05;28.97
6347;BME280;3206;42.666;23.600;2022-09-25T11:19:15;95312.25;;;32.71;27.94
6347;BME280;3206;42.666;23.600;2022-09-25T11:21:53;95302.69;;;35.06;26.99
6347;BME280;3206;42.666;23.600;2022-09-25T11:24:27;95299.94;;;36.48;25.21
6347;BME280;3206;42.666;23.600;2022-09-25T11:27:00;95296.22;;;37.45;24.18
6347;BME280;3206;42.666;23.600;2022-09-25T11:29:37;95300.47;;;36.52;24.13
6347;BME280;3206;42.666;23.600;2022-09-25T11:32:16;95300.06;;;35.59;24.96
6347;BME280;3206;42.666;23.600;2022-09-25T11:35:17;95304.50;;;35.09;25.72
6347;BME280;3206;42.666;23.600;2022-09-25T11:37:55;95290.38;;;34.82;25.11
6347;BME280;3206;42.666;23.600;2022-09-25T11:40:31;95294.31;;;35.26;25.75
6347;BME280;3206;42.666;23.600;2022-09-25T11:43:24;95297.72;;;34.59;24.71
6347;BME280;3206;42.666;23.600;2022-09-25T11:45:59;95279.19;;;34.45;24.79
6347;BME280;3206;42.666;23.600;2022-09-25T11:48:36;95285.59;;;34.82;24.29
6347;BME280;3206;42.666;23.600;2022-09-25T11:51:14;95291.22;;;33.08;25.39
6347;BME280;3206;42.666;23.600;2022-09-25T11:53:53;95286.00;;;33.45;25.42
6347;BME280;3206;42.666;23.600;2022-09-25T11:56:28;95266.97;;;34.88;24.75
6347;BME280;3206;42.666;23.600;2022-09-25T11:59:05;95277.13;;;34.97;24.39
6347;BME280;3206;42.666;23.600;2022-09-25T12:01:41;95271.69;;;36.66;22.97
6347;BME280;3206;42.666;23.600;2022-09-25T12:04:40;95267.97;;;38.03;22.30
6347;BME280;3206;42.666;23.600;2022-09-25T12:10:21;95265.75;;;39.12;21.02
6347;BME280;3206;42.666;23.600;2022-09-25T12:12:56;95259.06;;;38.56;21.46
6347;BME280;3206;42.666;23.600;2022-09-25T12:15:37;95262.81;;;37.23;21.51
6347;BME280;3206;42.666;23.600;2022-09-25T12:18:13;95249.66;;;38.53;20.88
6347;BME280;3206;42.666;23.600;2022-09-25T12:20:46;95259.78;;;36.77;21.56
6347;BME280;3206;42.666;23.600;2022-09-25T12:23:25;95247.06;;;36.37;22.82
6347;BME280;3206;42.666;23.600;2022-09-25T12:26:02;95254.34;;;37.72;21.70
6347;BME280;3206;42.666;23.600;2022-09-25T12:28:39;95247.75;;;37.75;21.61
6347;BME280;3206;42.666;23.600;2022-09-25T12:31:14;95251.91;;;37.52;21.74
6347;BME280;3206;42.666;23.600;2022-09-25T12:33:47;95237.09;;;39.06;20.97
6347;BME280;3206;42.666;23.600;2022-09-25T12:36:19;95229.00;;;38.27;21.51
6347;BME280;3206;42.666;23.600;2022-09-25T12:38:52;95228.16;;;37.97;21.06
6347;BME280;3206;42.666;23.600;2022-09-25T12:41:26;95228.97;;;38.32;21.18
6347;BME280;3206;42.666;23.600;2022-09-25T12:44:02;95215.72;;;39.38;21.07
6347;BME280;3206;42.666;23.600;2022-09-25T12:46:35;95210.88;;;39.38;21.72
6347;BME280;3206;42.666;23.600;2022-09-25T12:49:09;95225.16;;;39.35;20.08
6347;BME280;3206;42.666;23.600;2022-09-25T12:51:39;95217.72;;;39.37;20.40
6347;BME280;3206;42.666;23.600;2022-09-25T12:54:18;95209.28;;;39.19;21.33
6347;BME280;3206;42.666;23.600;2022-09-25T12:56:52;95212.19;;;37.08;22.22
6347;BME280;3206;42.666;23.600;2022-09-25T12:59:25;95205.00;;;38.88;21.02
6347;BME280;3206;42.666;23.600;2022-09-25T13:02:00;95199.50;;;40.52;20.21
6347;BME280;3206;42.666;23.600;2022-09-25T13:04:40;95193.28;;;39.86;20.47
6347;BME280;3206;42.666;23.600;2022-09-25T13:07:14;95195.06;;;40.75;19.98
6347;BME280;3206;42.666;23.600;2022-09-25T13:09:45;95184.75;;;40.33;19.90
6347;BME280;3206;42.666;23.600;2022-09-25T13:12:23;95186.81;;;39.00;20.18
6347;BME280;3206;42.666;23.600;2022-09-25T13:14:55;95183.53;;;39.50;20.33
6347;BME280;3206;42.666;23.600;2022-09-25T13:17:24;95176.97;;;40.45;19.87
6347;BME280;3206;42.666;23.600;2022-09-25T13:19:50;95163.25;;;39.44;19.93
6347;BME280;3206;42.666;23.600;2022-09-25T13:22:20;95163.72;;;39.90;20.30
6347;BME280;3206;42.666;23.600;2022-09-25T13:24:53;95166.06;;;40.73;20.25
6347;BME280;3206;42.666;23.600;2022-09-25T13:27:23;95159.91;;;41.19;19.78
6347;BME280;3206;42.666;23.600;2022-09-25T13:29:55;95165.63;;;41.00;19.54
6347;BME280;3206;42.666;23.600;2022-09-25T13:32:24;95160.91;;;41.34;19.60
6347;BME280;3206;42.666;23.600;2022-09-25T13:34:55;95150.53;;;41.42;19.53
6347;BME280;3206;42.666;23.600;2022-09-25T13:37:27;95149.66;;;40.95;19.05